Time;durP1;ratioP1;P1;durP2;ratioP2;P2;SDS_P1;SDS_P2;PMS_P1;PMS_P2;Temp;Humidity;BMP_temperature;BMP_pressure;BME280_temperature;BME280_humidity;BME280_pressure;Samples;Min_cycle;Max_cycle;Signal;HPM_P1;HPM_P2
2023/12/30 00:01:52;;;;;;;20.03;2.10;;;9.40;99.90;;;;;;5041193;28;20198;-81
2023/12/30 00:04:18;;;;;;;20.50;1.63;;;9.30;99.90;;;;;;5041434;28;20158;-81
2023/12/30 00:06:43;;;;;;;20.57;1.77;;;9.30;99.90;;;;;;5024306;28;20174;-81
2023/12/30 00:09:12;;;;;;;19.40;1.17;;;9.30;99.90;;;;;;5023543;28;20172;-81
2023/12/30 00:11:38;;;;;;;20.95;1.73;;;9.30;99.90;;;;;;5040187;28;20165;-81
2023/12/30 00:14:05;;;;;;;22.83;1.63;;;9.20;99.90;;;;;;5041069;28;20165;-81
2023/12/30 00:16:31;;;;;;;22.05;2.00;;;9.20;99.90;;;;;;5040553;28;20639;-80
2023/12/30 00:18:56;;;;;;;20.23;1.83;;;9.30;99.90;;;;;;5023000;28;20516;-81
2023/12/30 00:21:25;;;;;;;26.90;2.00;;;9.30;99.90;;;;;;5040226;28;20204;-81
2023/12/30 00:23:51;;;;;;;22.45;1.70;;;9.20;99.90;;;;;;5039753;28;20162;-81
2023/12/30 00:26:24;;;;;;;27.80;2.70;;;9.20;99.90;;;;;;5039930;28;20173;-81
2023/12/30 00:28:51;;;;;;;19.48;1.45;;;9.40;99.90;;;;;;5022368;28;20165;-81
2023/12/30 00:31:35;;;;;;;21.33;1.70;;;9.30;99.90;;;;;;5040769;28;20170;-81
2023/12/30 00:34:01;;;;;;;19.77;1.40;;;9.40;99.90;;;;;;5040331;28;20153;-81
2023/12/30 00:36:28;;;;;;;23.15;2.55;;;9.50;99.90;;;;;;5039670;28;20216;-81
2023/12/30 00:38:54;;;;;;;20.48;2.28;;;9.50;99.90;;;;;;5022974;28;20178;-81
2023/12/30 00:41:25;;;;;;;20.90;1.83;;;9.50;99.90;;;;;;5022069;28;20196;-81
2023/12/30 00:43:51;;;;;;;28.90;2.10;;;9.50;99.90;;;;;;5040165;28;20531;-81
2023/12/30 00:46:20;;;;;;;30.17;2.50;;;9.50;99.90;;;;;;5039718;28;20181;-80
2023/12/30 00:48:47;;;;;;;23.20;1.92;;;9.50;99.90;;;;;;5021518;28;20413;-81
2023/12/30 00:51:12;;;;;;;19.95;2.53;;;9.50;99.90;;;;;;5039109;28;20193;-81
2023/12/30 00:53:38;;;;;;;25.57;2.00;;;9.50;99.90;;;;;;5040045;28;20166;-80
2023/12/30 00:56:04;;;;;;;27.10;1.97;;;9.50;99.90;;;;;;5039751;28;20193;-81
2023/12/30 00:58:29;;;;;;;23.20;2.27;;;9.50;99.90;;;;;;5040570;28;20169;-81
2023/12/30 01:00:55;;;;;;;19.80;1.67;;;9.50;99.90;;;;;;5022716;28;20229;-81
2023/12/30 01:03:21;;;;;;;24.53;2.40;;;9.50;99.90;;;;;;5040585;28;20154;-81
2023/12/30 01:05:46;;;;;;;24.63;1.97;;;9.50;99.90;;;;;;5022072;28;20189;-81
2023/12/30 01:08:12;;;;;;;25.37;2.00;;;9.50;99.90;;;;;;5022527;28;20177;-81
2023/12/30 01:10:38;;;;;;;24.37;3.20;;;9.50;99.90;;;;;;5040010;28;20434;-81
2023/12/30 01:13:08;;;;;;;23.67;1.80;;;9.50;99.90;;;;;;5040939;28;20201;-81
2023/12/30 01:15:35;;;;;;;20.52;1.77;;;9.50;99.90;;;;;;5022234;28;20205;-81
2023/12/30 01:18:02;;;;;;;20.58;2.42;;;9.50;99.90;;;;;;5138839;22;20235;-81
2023/12/30 01:20:28;;;;;;;22.00;2.17;;;9.50;99.90;;;;;;5130977;22;20229;-80
2023/12/30 01:22:53;;;;;;;28.05;2.10;;;9.60;99.90;;;;;;5058944;28;20169;-80
2023/12/30 01:25:19;;;;;;;21.23;2.83;;;9.60;99.90;;;;;;5058302;28;20279;-80
2023/12/30 01:27:45;;;;;;;20.93;1.83;;;9.60;99.90;;;;;;5058480;28;20165;-80
2023/12/30 01:30:11;;;;;;;20.97;2.50;;;9.60;99.90;;;;;;5040537;28;20538;-82
2023/12/30 01:32:36;;;;;;;23.80;2.03;;;9.50;99.90;;;;;;5058691;28;20392;-81
2023/12/30 01:35:03;;;;;;;17.80;1.50;;;9.60;99.90;;;;;;5058318;28;20419;-80
2023/12/30 01:37:29;;;;;;;18.70;1.20;;;9.60;99.90;;;;;;5058337;28;20236;-80
2023/12/30 01:39:54;;;;;;;25.20;2.27;;;9.50;99.90;;;;;;5058521;28;20176;-80
2023/12/30 01:42:20;;;;;;;22.10;1.90;;;9.50;99.90;;;;;;5058242;28;20459;-80
2023/12/30 01:44:46;;;;;;;21.43;1.90;;;9.50;99.90;;;;;;5058157;28;20527;-80
2023/12/30 01:47:15;;;;;;;20.67;2.70;;;9.50;99.90;;;;;;5040174;28;20168;-80
2023/12/30 01:49:42;;;;;;;18.05;1.40;;;9.40;99.90;;;;;;5040533;28;20247;-80
2023/12/30 01:52:08;;;;;;;22.48;1.80;;;9.50;99.90;;;;;;5040221;28;20169;-80
2023/12/30 01:54:34;;;;;;;21.63;1.90;;;9.50;99.90;;;;;;5057753;28;20669;-80
2023/12/30 01:57:02;;;;;;;22.27;1.92;;;9.50;99.90;;;;;;5040234;28;20781;-81
2023/12/30 01:59:30;;;;;;;18.95;1.33;;;9.50;99.20;;;;;;5057372;28;20157;-80
2023/12/30 02:01:56;;;;;;;21.33;1.70;;;9.50;98.00;;;;;;5040041;28;20189;-81
2023/12/30 02:04:24;;;;;;;23.70;2.47;;;9.60;97.30;;;;;;5057518;28;20508;-80
2023/12/30 02:06:50;;;;;;;20.23;2.22;;;9.60;97.20;;;;;;5039316;28;20204;-80
2023/12/30 02:09:16;;;;;;;21.35;2.15;;;9.60;97.10;;;;;;5039386;28;20252;-80
2023/12/30 02:11:43;;;;;;;23.83;2.00;;;9.50;94.70;;;;;;5058062;28;20630;-80
2023/12/30 02:14:27;;;;;;;26.50;2.25;;;9.50;96.20;;;;;;5039677;28;20169;-80
2023/12/30 02:16:53;;;;;;;18.92;1.75;;;9.50;93.10;;;;;;5039633;28;20176;-80
2023/12/30 02:19:19;;;;;;;22.90;1.80;;;9.60;92.30;;;;;;5057328;28;20658;-80
2023/12/30 02:21:45;;;;;;;19.73;2.30;;;9.50;90.40;;;;;;5056638;28;20544;-80
2023/12/30 02:24:14;;;;;;;25.63;1.75;;;9.50;91.00;;;;;;5057182;28;20429;-80
2023/12/30 02:26:40;;;;;;;20.10;1.92;;;9.50;90.30;;;;;;5057021;28;20581;-80
2023/12/30 02:29:09;;;;;;;23.50;2.00;;;9.50;90.30;;;;;;5056898;28;20154;-80
2023/12/30 02:31:47;;;;;;;22.85;2.42;;;9.50;90.80;;;;;;5057115;28;20226;-80
2023/12/30 02:34:18;;;;;;;18.00;1.45;;;9.50;87.70;;;;;;5057239;28;20696;-80
2023/12/30 02:36:45;;;;;;;18.50;1.83;;;9.40;90.50;;;;;;5039547;28;20258;-80
2023/12/30 02:39:11;;;;;;;27.38;2.33;;;9.40;91.50;;;;;;5038841;28;20168;-80
2023/12/30 02:41:36;;;;;;;21.33;2.17;;;9.40;91.10;;;;;;5056730;28;20188;-80
2023/12/30 02:44:03;;;;;;;21.03;1.60;;;9.30;91.30;;;;;;5039401;28;20416;-80
2023/12/30 02:46:32;;;;;;;18.38;1.50;;;9.40;92.00;;;;;;5056877;28;20188;-80
2023/12/30 02:49:02;;;;;;;19.50;1.92;;;9.40;91.70;;;;;;5056702;28;20165;-82
2023/12/30 02:51:29;;;;;;;22.17;1.83;;;9.40;93.90;;;;;;5056789;28;20229;-82
2023/12/30 02:53:55;;;;;;;25.33;2.15;;;9.40;93.50;;;;;;5039161;28;20180;-82
2023/12/30 02:56:22;;;;;;;19.90;1.50;;;9.40;92.80;;;;;;5056543;28;20192;-82
2023/12/30 02:59:00;;;;;;;23.93;2.10;;;9.40;92.60;;;;;;5210404;22;1459681;-78
2023/12/30 03:01:27;;;;;;;26.73;1.83;;;9.40;94.40;;;;;;5278720;22;20678;-80
2023/12/30 03:03:58;;;;;;;18.73;1.55;;;9.40;94.00;;;;;;5056420;28;20239;-80
2023/12/30 03:06:24;;;;;;;22.95;1.90;;;9.40;93.80;;;;;;5038536;28;20605;-82
2023/12/30 03:08:51;;;;;;;19.60;2.22;;;9.50;93.20;;;;;;5038670;28;20515;-82
2023/12/30 03:11:17;;;;;;;25.88;2.40;;;9.50;91.70;;;;;;5056788;28;20171;-82
2023/12/30 03:13:42;;;;;;;21.00;1.85;;;9.50;90.90;;;;;;5056779;28;20589;-82
2023/12/30 03:16:11;;;;;;;21.00;1.80;;;9.50;89.00;;;;;;5057178;28;20197;-82
2023/12/30 03:18:42;;;;;;;23.17;1.60;;;9.50;90.30;;;;;;5056304;28;20165;-82
2023/12/30 03:21:11;;;;;;;25.65;1.85;;;9.50;91.00;;;;;;5056337;28;20181;-82
2023/12/30 03:23:37;;;;;;;19.20;1.50;;;9.50;90.70;;;;;;5055961;28;20662;-82
2023/12/30 03:26:10;;;;;;;22.20;2.10;;;9.50;91.30;;;;;;5055619;28;20725;-82
2023/12/30 03:28:36;;;;;;;23.67;1.42;;;9.50;91.00;;;;;;5056102;28;20169;-81
2023/12/30 03:31:03;;;;;;;17.92;1.30;;;9.60;88.80;;;;;;5037420;28;20291;-82
2023/12/30 03:33:29;;;;;;;20.60;1.65;;;9.50;88.80;;;;;;5055680;28;20165;-82
2023/12/30 03:35:54;;;;;;;27.73;3.20;;;9.50;89.70;;;;;;5055241;28;20181;-82
2023/12/30 03:38:21;;;;;;;19.37;1.97;;;9.50;91.50;;;;;;5055172;28;20445;-81
2023/12/30 03:40:47;;;;;;;23.52;2.80;;;9.50;91.50;;;;;;5056413;28;20662;-82
2023/12/30 03:43:13;;;;;;;22.13;1.80;;;9.50;91.80;;;;;;5038616;28;20172;-82
2023/12/30 03:45:39;;;;;;;21.48;1.50;;;9.50;91.60;;;;;;5055736;28;20181;-82
2023/12/30 03:48:06;;;;;;;23.30;2.10;;;9.60;90.60;;;;;;5056418;28;20163;-82
2023/12/30 03:50:31;;;;;;;23.30;1.88;;;9.50;91.60;;;;;;5055879;28;20240;-82
2023/12/30 03:52:57;;;;;;;22.13;1.83;;;9.50;91.30;;;;;;5056075;28;20192;-82
2023/12/30 03:55:23;;;;;;;19.27;1.73;;;9.50;90.00;;;;;;5037767;28;20291;-82
2023/12/30 03:57:48;;;;;;;25.40;2.60;;;9.50;90.40;;;;;;5056083;28;20244;-82
2023/12/30 04:00:14;;;;;;;27.47;1.90;;;9.50;91.30;;;;;;5056062;28;20166;-82
2023/12/30 04:02:40;;;;;;;22.03;2.17;;;9.50;89.10;;;;;;5056049;28;20184;-84
2023/12/30 04:05:06;;;;;;;20.02;1.92;;;9.50;91.70;;;;;;5037503;28;20482;-82
2023/12/30 04:07:32;;;;;;;19.33;1.58;;;9.40;91.80;;;;;;5056372;28;20169;-82
2023/12/30 04:09:58;;;;;;;18.50;1.70;;;9.40;93.70;;;;;;5037914;28;20176;-82
2023/12/30 04:12:24;;;;;;;22.23;1.97;;;9.40;91.60;;;;;;5055779;28;20161;-82
2023/12/30 04:14:51;;;;;;;19.42;1.50;;;9.40;91.90;;;;;;5056012;28;20191;-82
2023/12/30 04:17:16;;;;;;;27.83;1.90;;;9.30;91.90;;;;;;5037849;28;20582;-82
2023/12/30 04:19:42;;;;;;;19.40;1.63;;;9.20;93.80;;;;;;5056383;28;20230;-82
2023/12/30 04:22:07;;;;;;;21.30;2.10;;;9.30;92.90;;;;;;5056118;28;20669;-82
2023/12/30 04:24:33;;;;;;;28.57;2.07;;;9.20;92.20;;;;;;5037431;28;20689;-82
2023/12/30 04:26:59;;;;;;;21.13;2.03;;;9.20;93.80;;;;;;5055559;28;20555;-82
2023/12/30 04:29:26;;;;;;;25.67;2.30;;;9.20;94.90;;;;;;5055410;28;20193;-82
2023/12/30 04:31:54;;;;;;;21.63;1.70;;;9.10;96.10;;;;;;5055797;28;20172;-82
2023/12/30 04:34:20;;;;;;;23.60;2.65;;;9.10;95.60;;;;;;5055849;28;20165;-82
2023/12/30 04:36:46;;;;;;;21.37;2.10;;;9.10;96.60;;;;;;5037772;28;20173;-82
2023/12/30 04:39:11;;;;;;;23.70;2.07;;;9.20;95.80;;;;;;5056186;28;20169;-82
2023/12/30 04:41:37;;;;;;;23.93;2.20;;;9.10;96.50;;;;;;5037506;28;20195;-82
2023/12/30 04:44:03;;;;;;;22.37;2.10;;;9.10;97.90;;;;;;5056020;28;20173;-82
2023/12/30 04:46:29;;;;;;;25.40;2.63;;;9.10;99.70;;;;;;5059216;28;20424;-82
2023/12/30 04:48:54;;;;;;;21.33;1.97;;;9.20;97.70;;;;;;5058717;28;20173;-82
2023/12/30 04:51:21;;;;;;;23.10;2.00;;;9.20;98.70;;;;;;5059682;28;20165;-82
2023/12/30 04:53:47;;;;;;;21.52;1.83;;;9.20;99.90;;;;;;5041376;28;20169;-82
2023/12/30 04:56:16;;;;;;;27.43;2.33;;;9.20;99.90;;;;;;5058974;28;20330;-82
2023/12/30 04:58:42;;;;;;;28.98;2.65;;;9.20;99.90;;;;;;5041058;28;20169;-81
2023/12/30 05:01:08;;;;;;;24.33;2.93;;;9.20;99.90;;;;;;5057795;28;20658;-82
2023/12/30 05:03:35;;;;;;;23.67;2.88;;;9.20;99.90;;;;;;5040172;28;20415;-82
2023/12/30 05:06:02;;;;;;;20.60;1.77;;;9.20;99.90;;;;;;5058354;28;20677;-82
2023/12/30 05:08:28;;;;;;;20.92;2.03;;;9.30;99.20;;;;;;5040924;28;20165;-82
2023/12/30 05:10:53;;;;;;;21.70;1.87;;;9.30;98.00;;;;;;5058436;28;20219;-81
2023/12/30 05:13:19;;;;;;;22.80;1.97;;;9.20;98.00;;;;;;5040536;28;20408;-81
2023/12/30 05:15:45;;;;;;;25.47;3.07;;;9.30;98.60;;;;;;5058360;28;20208;-81
2023/12/30 05:18:11;;;;;;;23.60;2.23;;;9.20;97.50;;;;;;5039858;28;20430;-81
2023/12/30 05:20:37;;;;;;;28.63;2.85;;;9.20;98.10;;;;;;5057662;28;20667;-82
2023/12/30 05:23:03;;;;;;;22.07;2.70;;;9.20;99.60;;;;;;5057770;28;20165;-82
2023/12/30 05:25:29;;;;;;;23.15;2.08;;;9.10;98.30;;;;;;5039865;28;20218;-81
2023/12/30 05:27:55;;;;;;;22.13;1.57;;;9.10;99.70;;;;;;5057860;28;20244;-81
2023/12/30 05:30:21;;;;;;;24.30;2.37;;;9.10;99.90;;;;;;5058393;28;20406;-81
2023/12/30 05:32:46;;;;;;;20.70;1.98;;;9.10;99.90;;;;;;5058037;28;20543;-82
2023/12/30 05:35:12;;;;;;;26.53;2.10;;;9.10;99.90;;;;;;5039741;28;20181;-81
2023/12/30 05:37:38;;;;;;;23.53;2.20;;;9.10;99.90;;;;;;5040000;28;20648;-79
2023/12/30 05:40:06;;;;;;;25.73;2.23;;;9.10;99.90;;;;;;5057592;28;20455;-79
2023/12/30 05:42:31;;;;;;;23.42;2.35;;;9.20;99.90;;;;;;5057876;28;20239;-82
2023/12/30 05:44:57;;;;;;;21.20;2.13;;;9.20;99.90;;;;;;5042968;28;20189;-82
2023/12/30 05:47:23;;;;;;;29.65;2.88;;;9.20;99.90;;;;;;5058372;28;20223;-82
2023/12/30 05:49:49;;;;;;;22.33;2.50;;;9.10;99.90;;;;;;5058060;28;20165;-82
2023/12/30 05:52:15;;;;;;;26.80;2.20;;;9.20;99.90;;;;;;5040147;28;20773;-82
2023/12/30 05:54:40;;;;;;;20.33;2.30;;;9.20;99.00;;;;;;5039839;28;20612;-82
2023/12/30 05:57:06;;;;;;;22.17;1.63;;;9.30;97.90;;;;;;5058112;28;20749;-82
2023/12/30 05:59:32;;;;;;;23.30;1.80;;;9.20;97.70;;;;;;5057338;28;20688;-82
2023/12/30 06:01:58;;;;;;;23.40;2.13;;;9.10;99.80;;;;;;5039841;28;20701;-82
2023/12/30 06:04:25;;;;;;;21.23;2.00;;;9.10;99.90;;;;;;5057264;28;20634;-82
2023/12/30 06:06:52;;;;;;;28.70;2.72;;;9.10;99.90;;;;;;5058152;28;20162;-82
2023/12/30 06:09:17;;;;;;;22.45;2.25;;;9.20;99.90;;;;;;5057554;28;20169;-82
2023/12/30 06:11:43;;;;;;;21.77;2.57;;;9.10;99.90;;;;;;5057731;28;20169;-82
2023/12/30 06:14:09;;;;;;;26.17;2.00;;;9.20;99.90;;;;;;5057671;28;20259;-82
2023/12/30 06:16:35;;;;;;;25.17;2.75;;;9.30;99.90;;;;;;5039382;28;20180;-82
2023/12/30 06:19:00;;;;;;;28.20;2.80;;;9.20;99.60;;;;;;5057806;28;20740;-82
2023/12/30 06:21:26;;;;;;;25.40;2.03;;;9.20;99.50;;;;;;5057423;28;20535;-82
2023/12/30 06:23:52;;;;;;;21.77;1.60;;;9.20;99.90;;;;;;5057535;28;20622;-82
2023/12/30 06:26:17;;;;;;;24.03;1.70;;;9.20;99.90;;;;;;5057093;28;20275;-82
2023/12/30 06:28:43;;;;;;;20.57;2.10;;;9.20;99.70;;;;;;5057545;28;20279;-82
2023/12/30 06:31:08;;;;;;;20.70;1.60;;;9.20;99.90;;;;;;5056834;28;20173;-82
2023/12/30 06:33:37;;;;;;;23.03;1.67;;;9.30;99.90;;;;;;5057538;28;20191;-82
2023/12/30 06:36:03;;;;;;;24.70;2.05;;;9.20;98.70;;;;;;5056854;28;20181;-82
2023/12/30 06:38:29;;;;;;;19.85;1.25;;;9.20;99.10;;;;;;5039047;28;20573;-82
2023/12/30 06:40:57;;;;;;;23.10;2.60;;;9.20;99.00;;;;;;5039521;28;20184;-82
2023/12/30 06:43:23;;;;;;;20.83;1.75;;;9.20;98.90;;;;;;5039086;28;20165;-82
2023/12/30 06:45:49;;;;;;;28.23;2.13;;;9.20;99.20;;;;;;5056883;28;20227;-82
2023/12/30 06:48:17;;;;;;;22.47;1.90;;;9.20;99.90;;;;;;5057123;28;20214;-82
2023/12/30 06:50:43;;;;;;;18.75;1.70;;;9.20;99.90;;;;;;5056824;28;20168;-82
2023/12/30 06:53:12;;;;;;;22.43;2.17;;;9.10;99.90;;;;;;5056425;28;20161;-82
2023/12/30 06:55:38;;;;;;;25.15;1.80;;;9.10;99.90;;;;;;5038436;28;20435;-82
2023/12/30 06:58:03;;;;;;;23.77;1.80;;;9.00;99.90;;;;;;5056641;28;20177;-82
2023/12/30 07:00:30;;;;;;;22.20;2.07;;;9.00;99.90;;;;;;5056019;28;20172;-82
2023/12/30 07:02:56;;;;;;;21.33;1.73;;;9.10;99.90;;;;;;5056598;28;20267;-81
2023/12/30 07:05:22;;;;;;;20.20;1.43;;;9.20;99.90;;;;;;5056293;28;20258;-81
2023/12/30 07:07:50;;;;;;;24.30;1.90;;;9.10;99.90;;;;;;5037720;28;20415;-82
2023/12/30 07:10:17;;;;;;;23.00;2.28;;;9.20;99.90;;;;;;5038643;28;20527;-82
2023/12/30 07:12:42;;;;;;;21.17;1.98;;;9.20;99.90;;;;;;5056434;28;20185;-82
2023/12/30 07:17:37;;;;;;;24.85;2.63;;;9.30;96.90;;;;;;5054255;28;20693;-81
2023/12/30 07:20:03;;;;;;;25.20;2.10;;;9.30;96.60;;;;;;5038856;28;20165;-80
2023/12/30 07:22:32;;;;;;;19.80;1.58;;;9.30;97.30;;;;;;5221070;22;20559;-80
2023/12/30 07:24:59;;;;;;;22.20;1.75;;;9.20;97.90;;;;;;5055840;28;20177;-81
2023/12/30 07:27:24;;;;;;;21.38;1.70;;;9.20;97.60;;;;;;5055600;28;20242;-81
2023/12/30 07:29:50;;;;;;;18.73;1.70;;;9.20;97.70;;;;;;5056395;28;20561;-81
2023/12/30 07:32:16;;;;;;;21.30;1.57;;;9.30;96.50;;;;;;5056038;28;20169;-81
2023/12/30 07:34:41;;;;;;;20.33;1.53;;;9.30;93.10;;;;;;5056000;28;20213;-81
2023/12/30 07:37:07;;;;;;;25.63;2.93;;;9.30;93.90;;;;;;5038282;28;20235;-81
2023/12/30 07:39:33;;;;;;;19.00;1.70;;;9.30;91.10;;;;;;5055849;28;20231;-80
2023/12/30 07:41:59;;;;;;;20.23;1.83;;;9.30;89.90;;;;;;5038119;28;20193;-81
2023/12/30 07:44:26;;;;;;;20.27;1.70;;;9.30;91.90;;;;;;5056306;28;20161;-81
2023/12/30 07:46:52;;;;;;;22.70;1.85;;;9.30;90.20;;;;;;5056254;28;20165;-81
2023/12/30 07:49:18;;;;;;;19.37;1.20;;;9.20;92.80;;;;;;5055898;28;20169;-81
2023/12/30 07:51:44;;;;;;;21.47;1.57;;;9.20;91.60;;;;;;5055735;28;20180;-81
2023/12/30 07:54:10;;;;;;;23.42;2.35;;;9.10;93.50;;;;;;5038314;28;20260;-80
2023/12/30 07:56:35;;;;;;;19.80;1.50;;;9.20;93.20;;;;;;5055699;28;20212;-81
2023/12/30 07:59:01;;;;;;;23.97;1.87;;;9.20;92.60;;;;;;5056143;28;20255;-81
2023/12/30 08:01:26;;;;;;;22.20;2.23;;;9.20;92.50;;;;;;5055410;28;20196;-80
2023/12/30 08:03:52;;;;;;;24.70;2.33;;;9.20;90.90;;;;;;5056519;28;20161;-81
2023/12/30 08:06:18;;;;;;;24.33;2.10;;;9.10;94.70;;;;;;5055551;28;20748;-81
2023/12/30 08:08:44;;;;;;;24.60;1.97;;;9.10;94.30;;;;;;5055446;28;20695;-80
2023/12/30 08:11:09;;;;;;;26.47;1.63;;;9.10;96.30;;;;;;5055737;28;20192;-80
2023/12/30 08:13:35;;;;;;;19.27;1.60;;;9.10;95.70;;;;;;5054998;28;20461;-80
2023/12/30 08:16:00;;;;;;;21.30;2.23;;;9.10;98.70;;;;;;5055036;28;20240;-80
2023/12/30 08:18:26;;;;;;;22.27;2.00;;;9.00;99.90;;;;;;5054885;28;20196;-80
2023/12/30 08:20:54;;;;;;;21.30;1.97;;;9.10;99.90;;;;;;5058995;28;20184;-80
2023/12/30 08:23:19;;;;;;;24.50;2.00;;;9.10;99.90;;;;;;5059007;28;20173;-80
2023/12/30 08:25:45;;;;;;;19.30;2.07;;;9.10;99.90;;;;;;5059094;28;20192;-80
2023/12/30 08:28:11;;;;;;;22.77;2.80;;;9.20;99.90;;;;;;5041027;28;20575;-80
2023/12/30 08:30:37;;;;;;;19.83;2.43;;;9.20;99.90;;;;;;5058733;28;20214;-81
2023/12/30 08:33:06;;;;;;;20.85;1.98;;;9.20;99.90;;;;;;5041516;28;20165;-80
2023/12/30 08:35:33;;;;;;;25.38;2.30;;;9.20;99.70;;;;;;5058746;28;20181;-80
2023/12/30 08:37:58;;;;;;;25.83;2.35;;;9.20;99.90;;;;;;5058814;28;20642;-80
2023/12/30 08:40:24;;;;;;;22.13;2.43;;;9.30;99.80;;;;;;5058842;28;20172;-80
2023/12/30 08:42:50;;;;;;;24.38;2.20;;;9.30;99.90;;;;;;5040656;28;20181;-80
2023/12/30 08:45:19;;;;;;;27.13;2.55;;;9.30;97.70;;;;;;5058655;28;20181;-80
2023/12/30 08:47:46;;;;;;;27.20;3.10;;;9.40;96.60;;;;;;5059000;28;20712;-80
2023/12/30 08:50:12;;;;;;;23.83;1.92;;;9.40;95.40;;;;;;5041591;28;20196;-80
2023/12/30 08:52:41;;;;;;;19.55;1.90;;;9.50;95.40;;;;;;5041157;28;20169;-80
2023/12/30 08:55:12;;;;;;;20.13;2.28;;;9.40;94.30;;;;;;5059384;28;20192;-80
2023/12/30 08:57:38;;;;;;;23.60;2.83;;;9.50;93.30;;;;;;5058849;28;20196;-81
2023/12/30 09:00:08;;;;;;;31.53;3.00;;;9.50;92.30;;;;;;5059304;28;20165;-81
2023/12/30 09:02:35;;;;;;;27.05;2.83;;;9.60;91.40;;;;;;5041052;28;20479;-81
2023/12/30 09:05:02;;;;;;;24.85;3.08;;;9.50;85.80;;;;;;5058969;28;20191;-81
2023/12/30 09:07:29;;;;;;;25.77;2.05;;;9.50;86.20;;;;;;5058527;28;20165;-80
2023/12/30 09:09:56;;;;;;;22.10;2.35;;;9.60;83.60;;;;;;5059277;28;20631;-80
2023/12/30 09:12:22;;;;;;;32.40;3.15;;;9.60;72.80;;;;;;5058457;28;20731;-80
2023/12/30 09:14:47;;;;;;;20.95;2.58;;;9.70;73.00;;;;;;5058743;28;20185;-81
2023/12/30 09:17:13;;;;;;;23.03;3.70;;;9.70;71.70;;;;;;5058957;28;20165;-81
2023/12/30 09:19:39;;;;;;;21.80;2.73;;;9.70;68.30;;;;;;5059081;28;20244;-81
2023/12/30 09:22:07;;;;;;;22.20;2.70;;;9.70;62.50;;;;;;5058408;28;20617;-81
2023/12/30 09:24:33;;;;;;;21.02;2.38;;;9.80;64.50;;;;;;5058636;28;20217;-81
2023/12/30 09:26:59;;;;;;;23.42;1.85;;;9.90;60.80;;;;;;5058598;28;20188;-81
2023/12/30 09:29:25;;;;;;;20.08;2.03;;;9.90;49.10;;;;;;5040221;28;20539;-81
2023/12/30 09:31:50;;;;;;;23.30;2.13;;;9.90;47.90;;;;;;5058051;28;20173;-81
2023/12/30 09:34:16;;;;;;;18.13;1.57;;;10.00;48.70;;;;;;5058462;28;20166;-80
2023/12/30 09:36:42;;;;;;;20.13;2.07;;;9.90;36.90;;;;;;5058145;28;20211;-81
2023/12/30 09:39:11;;;;;;;24.57;2.10;;;9.90;38.20;;;;;;5058860;28;20169;-81
2023/12/30 09:41:39;;;;;;;18.48;2.28;;;9.90;26.00;;;;;;5057934;28;20192;-81
2023/12/30 09:44:06;;;;;;;21.55;2.03;;;10.00;38.60;;;;;;5058372;28;20638;-80
2023/12/30 09:46:35;;;;;;;20.25;2.05;;;10.10;28.70;;;;;;5058230;28;20189;-80
2023/12/30 09:49:06;;;;;;;24.42;1.90;;;10.10;29.50;;;;;;5057923;28;20658;-80
2023/12/30 09:51:33;;;;;;;27.58;2.00;;;10.00;32.10;;;;;;5039751;28;20193;-80
2023/12/30 09:53:59;;;;;;;19.10;2.00;;;10.00;35.70;;;;;;5057983;28;20166;-80
2023/12/30 09:56:26;;;;;;;22.80;2.42;;;10.10;32.90;;;;;;5039947;28;20222;-80
2023/12/30 09:58:53;;;;;;;19.98;2.42;;;10.10;24.50;;;;;;5039928;28;20172;-80
2023/12/30 10:01:20;;;;;;;23.88;2.33;;;10.20;20.20;;;;;;5039612;28;20204;-79
2023/12/30 10:03:46;;;;;;;21.45;2.40;;;10.10;14.50;;;;;;5056893;28;20208;-80
2023/12/30 10:06:14;;;;;;;21.35;1.90;;;10.10;20.60;;;;;;5056717;28;20185;-80
2023/12/30 10:13:44;;;;;;;20.85;2.13;;;10.20;26.00;;;;;;5033923;28;20213;-80
2023/12/30 10:16:11;;;;;;;22.93;2.90;;;10.30;21.80;;;;;;5018726;28;20190;-79
2023/12/30 10:18:38;;;;;;;17.88;1.60;;;10.20;22.30;;;;;;5019090;28;20173;-80
2023/12/30 10:21:05;;;;;;;20.95;2.05;;;10.20;18.80;;;;;;5037305;28;20556;-80
2023/12/30 10:23:32;;;;;;;22.25;1.90;;;10.30;17.00;;;;;;5036584;28;20182;-80
2023/12/30 10:26:02;;;;;;;23.20;1.58;;;10.30;19.60;;;;;;5037114;28;20261;-80
2023/12/30 10:28:29;;;;;;;27.20;2.10;;;10.40;10.50;;;;;;5037294;28;20604;-80
2023/12/30 10:31:05;;;;;;;20.00;1.73;;;10.50;11.60;;;;;;5037135;28;20177;-80
2023/12/30 10:33:32;;;;;;;18.65;1.70;;;10.50;7.90;;;;;;5037372;28;20208;-80
2023/12/30 10:35:59;;;;;;;22.13;1.70;;;10.50;17.90;;;;;;5036937;28;20558;-80
2023/12/30 10:38:26;;;;;;;23.10;2.75;;;10.60;13.40;;;;;;5036790;28;20170;-80
2023/12/30 10:40:52;;;;;;;18.95;2.00;;;10.70;9.00;;;;;;5037186;28;20189;-80
2023/12/30 10:43:21;;;;;;;19.50;1.70;;;10.70;9.80;;;;;;5036359;28;20170;-80
2023/12/30 10:45:55;;;;;;;20.58;1.45;;;10.60;4.20;;;;;;5036884;28;20192;-80
2023/12/30 10:48:21;;;;;;;21.75;2.30;;;10.60;6.00;;;;;;5019205;28;20165;-80
2023/12/30 10:50:53;;;;;;;21.60;2.00;;;10.70;6.90;;;;;;5020117;28;20158;-81
2023/12/30 10:53:44;;;;;;;21.38;1.63;;;10.90;5.90;;;;;;5020348;28;20906;-81
2023/12/30 10:56:12;;;;;;;19.40;2.60;;;11.00;1.00;;;;;;5038801;28;20193;-81
2023/12/30 10:58:39;;;;;;;16.92;1.50;;;11.10;1.00;;;;;;5038037;28;20161;-80
2023/12/30 11:01:06;;;;;;;16.65;1.42;;;11.20;1.00;;;;;;5037784;28;20229;-81
2023/12/30 11:03:34;;;;;;;19.48;1.60;;;11.20;1.00;;;;;;5037564;28;20173;-81
2023/12/30 11:06:18;;;;;;;17.38;1.48;;;11.10;1.00;;;;;;5037997;28;20189;-81
2023/12/30 11:08:44;;;;;;;18.88;1.60;;;11.20;1.00;;;;;;5038247;28;20158;-81
2023/12/30 11:11:14;;;;;;;20.08;1.90;;;11.20;1.00;;;;;;5020219;28;20170;-81
2023/12/30 11:13:44;;;;;;;18.23;1.80;;;11.30;1.00;;;;;;5038586;28;20189;-81
2023/12/30 11:16:17;;;;;;;19.55;2.35;;;11.30;1.00;;;;;;5037886;28;20217;-81
2023/12/30 11:18:51;;;;;;;18.58;1.75;;;11.30;1.00;;;;;;5038356;28;20228;-81
2023/12/30 11:21:43;;;;;;;23.63;1.73;;;11.40;1.00;;;;;;5037642;28;20196;-81
2023/12/30 11:24:11;;;;;;;19.30;1.80;;;11.50;1.00;;;;;;5020302;28;20224;-80
2023/12/30 11:26:40;;;;;;;22.98;2.10;;;11.60;1.00;;;;;;5020446;28;20174;-81
2023/12/30 11:29:14;;;;;;;28.67;2.35;;;11.80;1.00;;;;;;5037670;28;20165;-81
2023/12/30 11:31:42;;;;;;;25.63;2.40;;;11.80;1.00;;;;;;5020251;28;20173;-81
2023/12/30 11:34:09;;;;;;;18.30;1.40;;;11.80;1.00;;;;;;5019867;28;20174;-81
2023/12/30 11:36:35;;;;;;;21.75;2.00;;;11.80;1.00;;;;;;5019789;28;20166;-81
2023/12/30 11:39:01;;;;;;;19.00;1.57;;;11.70;1.00;;;;;;5037323;28;20325;-81
2023/12/30 11:41:29;;;;;;;23.00;2.00;;;11.80;1.00;;;;;;5019465;28;20487;-81
2023/12/30 11:43:55;;;;;;;21.05;2.10;;;11.80;1.00;;;;;;5019411;28;20170;-81
2023/12/30 11:46:21;;;;;;;19.30;1.58;;;11.60;1.00;;;;;;5127992;23;20599;-81
2023/12/30 11:48:47;;;;;;;18.53;1.70;;;11.60;1.00;;;;;;5057011;28;20168;-81
2023/12/30 11:51:24;;;;;;;22.40;2.00;;;11.70;1.00;;;;;;5057301;28;20387;-81
2023/12/30 11:53:50;;;;;;;23.02;1.85;;;11.70;1.00;;;;;;5057893;28;20526;-81
2023/12/30 11:56:17;;;;;;;18.83;1.75;;;11.70;1.00;;;;;;5057446;28;20205;-81
2023/12/30 11:58:44;;;;;;;18.55;1.40;;;11.70;1.00;;;;;;5057310;28;20192;-81
2023/12/30 12:01:10;;;;;;;18.05;1.83;;;11.80;1.00;;;;;;5039250;28;20185;-81
2023/12/30 12:03:36;;;;;;;19.17;1.33;;;11.80;1.00;;;;;;5039268;28;20176;-81
2023/12/30 12:06:02;;;;;;;19.73;1.80;;;11.80;1.00;;;;;;5056026;28;20796;-81
2023/12/30 12:08:28;;;;;;;17.70;1.40;;;12.00;1.00;;;;;;5039971;28;20519;-81
2023/12/30 12:10:55;;;;;;;19.58;1.73;;;12.20;1.00;;;;;;5057089;28;20173;-81
2023/12/30 12:13:21;;;;;;;21.77;1.75;;;12.20;1.00;;;;;;5039497;28;20260;-81
2023/12/30 12:15:55;;;;;;;17.98;1.40;;;12.20;1.00;;;;;;5039445;28;20204;-81
2023/12/30 12:18:22;;;;;;;20.95;1.90;;;12.20;1.00;;;;;;5039367;28;20166;-81
2023/12/30 12:20:51;;;;;;;17.77;1.88;;;12.30;1.00;;;;;;5039945;28;20527;-81
2023/12/30 12:23:18;;;;;;;19.80;1.88;;;12.20;1.00;;;;;;5057699;28;20504;-81
2023/12/30 12:25:45;;;;;;;22.45;2.17;;;12.00;1.00;;;;;;5057208;28;20203;-81
2023/12/30 12:28:12;;;;;;;18.60;2.40;;;11.90;1.00;;;;;;5057524;28;20207;-81
2023/12/30 12:30:39;;;;;;;18.90;1.70;;;11.90;1.00;;;;;;5056848;28;20251;-81
2023/12/30 12:33:05;;;;;;;22.10;2.17;;;11.90;1.00;;;;;;5057096;28;20157;-81
2023/12/30 12:35:31;;;;;;;24.23;2.58;;;11.80;1.00;;;;;;5057497;28;20180;-81
2023/12/30 12:37:57;;;;;;;18.50;2.43;;;11.80;1.00;;;;;;5057229;28;20157;-81
2023/12/30 12:40:24;;;;;;;17.73;1.52;;;11.90;1.00;;;;;;5038814;28;20396;-81
2023/12/30 12:42:49;;;;;;;17.52;1.50;;;11.90;1.00;;;;;;5056764;28;20181;-81
2023/12/30 12:45:15;;;;;;;20.30;1.30;;;11.90;1.00;;;;;;5038969;28;20254;-81
2023/12/30 12:47:41;;;;;;;19.52;2.10;;;11.80;1.00;;;;;;5057273;28;20154;-81
2023/12/30 12:50:07;;;;;;;17.70;1.40;;;11.80;1.00;;;;;;5038829;28;20162;-81
2023/12/30 12:52:33;;;;;;;20.85;1.70;;;11.70;1.00;;;;;;5057166;28;20404;-81